Time;durP1;ratioP1;P1;durP2;ratioP2;P2;SDS_P1;SDS_P2;PMS_P1;PMS_P2;Temp;Humidity;BMP_temperature;BMP_pressure;BME280_temperature;BME280_humidity;BME280_pressure;Samples;Min_cycle;Max_cycle;Signal;HPM_P1;HPM_P2
2021/08/19 00:01:44;;;;;;;6.25;3.20;;;;;;;;;;5100627;28;20110;-82
2021/08/19 00:04:10;;;;;;;5.32;3.53;;;;;;;;;;5085390;28;20107;-83
2021/08/19 00:06:37;;;;;;;5.63;3.38;;;;;;;;;;5085668;28;20048;-82
2021/08/19 00:09:04;;;;;;;6.20;3.70;;;;;;;;;;5087713;28;20071;-82
2021/08/19 00:11:32;;;;;;;5.28;3.30;;;;;;;;;;5087008;28;20049;-82
2021/08/19 00:13:59;;;;;;;5.20;3.40;;;;;;;;;;5113336;28;20032;-81
2021/08/19 00:16:26;;;;;;;5.40;2.70;;;;;;;;;;5119468;28;20243;-80
2021/08/19 00:18:53;;;;;;;6.20;3.25;;;;;;;;;;5119807;28;20035;-82
2021/08/19 00:21:20;;;;;;;4.53;3.13;;;;;;;;;;5098066;28;20094;-82
2021/08/19 00:23:46;;;;;;;5.30;3.45;;;;;;;;;;5101700;28;20562;-81
2021/08/19 00:26:13;;;;;;;5.47;3.35;;;;;;;;;;5102074;28;20044;-83
2021/08/19 00:28:41;;;;;;;6.25;3.58;;;;;;;;;;5105720;28;20102;-81
2021/08/19 00:31:09;;;;;;;6.18;3.83;;;;;;;;;;5105076;28;20048;-81
2021/08/19 00:33:36;;;;;;;5.85;3.45;;;;;;;;;;5104272;28;20075;-82
2021/08/19 00:36:03;;;;;;;5.93;3.05;;;;;;;;;;5101250;28;20098;-82
2021/08/19 00:38:29;;;;;;;5.68;3.10;;;;;;;;;;5100206;28;20044;-82
2021/08/19 00:40:56;;;;;;;5.95;3.28;;;;;;;;;;5100590;28;20059;-82
2021/08/19 00:43:23;;;;;;;5.63;3.15;;;;;;;;;;5104281;28;20447;-81
2021/08/19 00:45:51;;;;;;;6.05;2.72;;;;;;;;;;5102915;28;20044;-82
2021/08/19 00:48:18;;;;;;;5.50;3.08;;;;;;;;;;5104476;28;20048;-82
2021/08/19 00:50:45;;;;;;;5.90;2.95;;;;;;;;;;5103999;28;20078;-81
2021/08/19 00:53:12;;;;;;;5.00;3.28;;;;;;;;;;5103089;28;20044;-82
2021/08/19 00:55:39;;;;;;;6.00;2.97;;;;;;;;;;5104445;28;20044;-82
2021/08/19 00:58:06;;;;;;;6.35;3.00;;;;;;;;;;5106115;28;20385;-81
2021/08/19 01:00:34;;;;;;;4.70;2.88;;;;;;;;;;5103327;28;20052;-81
2021/08/19 01:03:02;;;;;;;5.40;2.97;;;;;;;;;;5089172;28;20053;-81
2021/08/19 01:05:30;;;;;;;6.57;3.47;;;;;;;;;;5084949;28;20045;-81
2021/08/19 01:07:59;;;;;;;5.10;2.70;;;;;;;;;;5085068;28;20048;-81
2021/08/19 01:10:27;;;;;;;5.15;2.88;;;;;;;;;;5084804;28;20040;-82
2021/08/19 01:12:54;;;;;;;5.95;3.15;;;;;;;;;;5094325;28;20396;-82
2021/08/19 01:15:21;;;;;;;6.20;3.30;;;;;;;;;;5104978;28;20082;-82
2021/08/19 01:17:54;;;;;;;4.97;3.35;;;;;;;;;;5106011;28;20121;-82
2021/08/19 01:20:28;;;;;;;4.75;2.80;;;;;;;;;;5106251;28;20094;-83
2021/08/19 01:22:57;;;;;;;5.30;3.17;;;;;;;;;;5106006;28;20044;-81
2021/08/19 01:25:24;;;;;;;5.57;2.95;;;;;;;;;;5106195;28;20052;-82
2021/08/19 01:27:54;;;;;;;5.07;2.95;;;;;;;;;;5107187;28;20044;-81
2021/08/19 01:30:21;;;;;;;4.72;3.15;;;;;;;;;;5106791;28;20048;-82
2021/08/19 01:32:48;;;;;;;6.25;3.28;;;;;;;;;;5106810;28;20052;-81
2021/08/19 01:35:20;;;;;;;5.50;3.72;;;;;;;;;;5106649;28;20055;-82
2021/08/19 01:37:47;;;;;;;5.45;3.03;;;;;;;;;;5107865;28;20074;-82
2021/08/19 01:40:14;;;;;;;5.03;3.00;;;;;;;;;;5093522;28;20044;-83
2021/08/19 01:42:42;;;;;;;5.25;3.17;;;;;;;;;;5085810;28;20045;-83
2021/08/19 01:45:12;;;;;;;5.55;3.17;;;;;;;;;;5085409;28;20082;-83
2021/08/19 01:47:39;;;;;;;5.40;3.28;;;;;;;;;;5085927;28;20501;-82
2021/08/19 01:50:06;;;;;;;5.45;2.92;;;;;;;;;;5086209;28;20048;-81
2021/08/19 01:52:33;;;;;;;5.80;3.30;;;;;;;;;;5087173;28;20044;-82
2021/08/19 01:55:00;;;;;;;6.28;3.70;;;;;;;;;;5086939;28;20095;-82
2021/08/19 01:57:26;;;;;;;5.50;3.50;;;;;;;;;;5087100;28;20048;-82
2021/08/19 01:59:53;;;;;;;6.38;3.53;;;;;;;;;;5086567;28;20041;-82
2021/08/19 02:02:21;;;;;;;6.35;3.65;;;;;;;;;;5087040;28;20052;-81
2021/08/19 02:04:48;;;;;;;5.65;3.53;;;;;;;;;;5087788;28;20045;-82
2021/08/19 02:07:15;;;;;;;7.47;3.95;;;;;;;;;;5087158;28;20049;-82
2021/08/19 02:09:41;;;;;;;8.18;3.40;;;;;;;;;;5088315;28;20048;-83
2021/08/19 02:12:08;;;;;;;7.15;3.30;;;;;;;;;;5090475;28;20049;-83
2021/08/19 02:14:35;;;;;;;5.63;3.13;;;;;;;;;;5108566;28;20094;-83
2021/08/19 02:17:02;;;;;;;5.30;3.25;;;;;;;;;;5108821;28;20565;-83
2021/08/19 02:19:30;;;;;;;6.72;3.95;;;;;;;;;;5109277;28;20109;-82
2021/08/19 02:21:57;;;;;;;6.78;3.47;;;;;;;;;;5108914;28;20074;-82
2021/08/19 02:24:23;;;;;;;5.35;3.60;;;;;;;;;;5110133;28;20040;-83
2021/08/19 02:26:50;;;;;;;5.65;3.40;;;;;;;;;;5108626;28;20048;-82
2021/08/19 02:29:17;;;;;;;6.05;3.80;;;;;;;;;;5103405;28;20082;-82
2021/08/19 02:31:44;;;;;;;7.07;3.92;;;;;;;;;;5101873;28;20040;-83
2021/08/19 02:34:11;;;;;;;8.38;3.80;;;;;;;;;;5101475;28;20110;-82
2021/08/19 02:36:39;;;;;;;6.32;3.60;;;;;;;;;;5100533;28;20083;-82
2021/08/19 02:39:06;;;;;;;5.82;3.60;;;;;;;;;;5109397;28;20479;-81
2021/08/19 02:41:32;;;;;;;6.65;3.72;;;;;;;;;;5108304;28;20048;-83
2021/08/19 02:43:59;;;;;;;7.13;4.20;;;;;;;;;;5110316;28;20098;-83
2021/08/19 02:46:28;;;;;;;6.00;3.53;;;;;;;;;;5109751;28;20071;-83
2021/08/19 02:48:54;;;;;;;6.85;3.85;;;;;;;;;;5109936;28;20055;-83
2021/08/19 02:51:21;;;;;;;5.90;3.40;;;;;;;;;;5109786;28;20070;-83
2021/08/19 02:53:49;;;;;;;6.97;3.60;;;;;;;;;;5109905;28;20040;-83
2021/08/19 02:56:16;;;;;;;6.07;3.70;;;;;;;;;;5109004;28;20078;-82
2021/08/19 02:58:43;;;;;;;6.05;3.50;;;;;;;;;;5109115;28;20090;-82
2021/08/19 03:01:09;;;;;;;6.68;4.30;;;;;;;;;;5108416;28;20052;-82
2021/08/19 03:03:36;;;;;;;5.68;3.60;;;;;;;;;;5088944;28;20048;-83
2021/08/19 03:06:03;;;;;;;7.13;4.47;;;;;;;;;;5087394;28;20049;-81
2021/08/19 03:08:30;;;;;;;5.82;3.50;;;;;;;;;;5088151;28;20045;-82
2021/08/19 03:10:58;;;;;;;5.80;3.15;;;;;;;;;;5095124;28;20068;-83
2021/08/19 03:13:25;;;;;;;5.63;3.53;;;;;;;;;;5114148;28;20039;-83
2021/08/19 03:15:51;;;;;;;5.78;3.75;;;;;;;;;;5120547;28;20028;-83
2021/08/19 03:18:18;;;;;;;7.45;3.97;;;;;;;;;;5103176;28;20051;-81
2021/08/19 03:20:45;;;;;;;8.30;4.18;;;;;;;;;;5098855;28;20102;-80
2021/08/19 03:23:12;;;;;;;7.05;3.63;;;;;;;;;;5099642;28;20063;-80
2021/08/19 03:25:38;;;;;;;5.60;3.60;;;;;;;;;;5099778;28;20552;-80
2021/08/19 03:28:08;;;;;;;5.88;3.33;;;;;;;;;;5101761;28;20051;-81
2021/08/19 03:30:36;;;;;;;7.47;3.95;;;;;;;;;;5109390;28;20051;-81
2021/08/19 03:33:04;;;;;;;7.75;4.13;;;;;;;;;;5109127;28;20048;-81
2021/08/19 03:35:31;;;;;;;6.78;3.92;;;;;;;;;;5108223;28;20098;-81
2021/08/19 03:37:58;;;;;;;7.13;3.92;;;;;;;;;;5115259;28;20052;-81
2021/08/19 03:40:24;;;;;;;6.30;3.60;;;;;;;;;;5116211;28;20052;-81
2021/08/19 03:42:51;;;;;;;6.10;3.67;;;;;;;;;;5115255;28;20056;-80
2021/08/19 03:45:20;;;;;;;6.47;4.15;;;;;;;;;;5114100;28;20086;-81
2021/08/19 03:47:46;;;;;;;7.93;3.88;;;;;;;;;;5116050;28;20048;-82
2021/08/19 03:50:13;;;;;;;6.82;3.92;;;;;;;;;;5116062;28;20062;-81
2021/08/19 03:52:40;;;;;;;6.25;4.13;;;;;;;;;;5117064;28;20047;-82
2021/08/19 03:55:07;;;;;;;9.13;3.83;;;;;;;;;;5116555;28;20076;-83
2021/08/19 03:57:34;;;;;;;8.02;4.45;;;;;;;;;;5115862;28;20094;-83
2021/08/19 04:00:01;;;;;;;7.63;3.63;;;;;;;;;;5115235;28;20110;-82
2021/08/19 04:02:29;;;;;;;7.45;4.72;;;;;;;;;;5101732;28;20049;-84
2021/08/19 04:04:57;;;;;;;6.63;4.10;;;;;;;;;;5092402;28;20048;-84
2021/08/19 04:07:23;;;;;;;6.82;4.15;;;;;;;;;;5092192;28;20048;-83
2021/08/19 04:09:50;;;;;;;6.82;4.13;;;;;;;;;;5091872;28;20044;-83
2021/08/19 04:12:17;;;;;;;6.63;3.60;;;;;;;;;;5092292;28;20095;-82
2021/08/19 04:14:44;;;;;;;6.75;4.50;;;;;;;;;;5094016;28;20074;-82
2021/08/19 04:17:18;;;;;;;8.23;5.13;;;;;;;;;;5197603;22;20110;-81
2021/08/19 04:20:03;;;;;;;9.30;6.65;;;;;;;;;;5075412;28;20135;-81
2021/08/19 04:22:44;;;;;;;8.38;5.10;;;;;;;;;;5076249;28;20066;-80
2021/08/19 04:25:18;;;;;;;7.13;4.00;;;;;;;;;;5076748;28;20044;-81
2021/08/19 04:27:45;;;;;;;8.07;4.28;;;;;;;;;;5058648;28;20053;-82
2021/08/19 04:30:14;;;;;;;8.65;5.75;;;;;;;;;;5042611;28;20107;-82
2021/08/19 04:32:41;;;;;;;6.75;3.80;;;;;;;;;;5060021;28;20056;-82
2021/08/19 04:35:11;;;;;;;7.65;4.32;;;;;;;;;;5058999;28;20482;-81
2021/08/19 04:37:38;;;;;;;7.00;4.47;;;;;;;;;;5060184;28;20049;-83
2021/08/19 04:40:05;;;;;;;9.15;5.07;;;;;;;;;;5060323;28;20041;-82
2021/08/19 04:42:32;;;;;;;6.95;3.92;;;;;;;;;;5060223;28;20410;-82
2021/08/19 04:45:18;;;;;;;8.90;5.63;;;;;;;;;;5058937;28;20457;-83
2021/08/19 04:47:45;;;;;;;6.50;4.07;;;;;;;;;;5059905;28;20053;-82
2021/08/19 04:50:18;;;;;;;7.82;4.22;;;;;;;;;;5060398;28;20052;-82
2021/08/19 04:52:45;;;;;;;8.48;5.00;;;;;;;;;;5060944;28;20045;-82
2021/08/19 04:55:13;;;;;;;6.60;3.97;;;;;;;;;;5059913;28;20045;-82
2021/08/19 04:57:39;;;;;;;9.35;4.50;;;;;;;;;;5060311;28;20048;-81
2021/08/19 05:00:07;;;;;;;7.43;4.47;;;;;;;;;;5060057;28;20095;-83
2021/08/19 05:02:34;;;;;;;8.70;5.45;;;;;;;;;;5059931;28;20049;-82
2021/08/19 05:05:00;;;;;;;6.88;4.07;;;;;;;;;;5059752;28;20102;-82
2021/08/19 05:07:30;;;;;;;9.63;5.00;;;;;;;;;;5068653;28;20045;-83
2021/08/19 05:09:57;;;;;;;7.65;4.20;;;;;;;;;;5070469;28;20071;-81
2021/08/19 05:12:24;;;;;;;6.97;4.18;;;;;;;;;;5066770;28;20038;-81
2021/08/19 05:14:50;;;;;;;7.75;4.47;;;;;;;;;;5049108;28;20042;-82
2021/08/19 05:17:18;;;;;;;7.95;4.25;;;;;;;;;;5060046;28;20045;-81
2021/08/19 05:19:53;;;;;;;6.60;4.22;;;;;;;;;;5064408;28;20049;-82
2021/08/19 05:22:23;;;;;;;6.97;4.07;;;;;;;;;;5053172;28;20079;-82
2021/08/19 05:27:52;;;;;;;7.72;4.05;;;;;;;;;;5155688;22;20086;-83
2021/08/19 05:30:28;;;;;;;8.20;4.72;;;;;;;;;;5141625;27;20051;-83
2021/08/19 05:33:09;;;;;;;9.57;5.32;;;;;;;;;;5140967;27;20077;-82
2021/08/19 05:36:12;;;;;;;;;;;;;;;;;;;;;
2021/08/19 05:38:44;;;;;;;7.97;4.07;;;;;;;;;;5011303;28;20008;-83
2021/08/19 05:41:41;;;;;;;8.13;4.25;;;;;;;;;;5017457;28;20080;-82
2021/08/19 05:46:58;;;;;;;;;;;;;;;;;;4913424;29;20060;-82
2021/08/19 05:49:25;;;;;;;6.25;4.00;;;;;;;;;;4965066;28;19984;-80
2021/08/19 05:54:57;;;;;;;9.27;5.15;;;;;;;;;;5037825;28;20132;-81
2021/08/19 05:57:40;;;;;;;8.70;4.38;;;;;;;;;;5055822;28;20041;-81
2021/08/19 06:00:24;;;;;;;8.63;4.85;;;;;;;;;;5112126;27;20051;-81
2021/08/19 06:05:38;;;;;;;7.07;4.22;;;;;;;;;;5074947;28;20053;-82
2021/08/19 06:11:11;;;;;;;8.27;4.65;;;;;;;;;;5119025;28;20058;-82
2021/08/19 06:13:39;;;;;;;6.82;4.57;;;;;;;;;;5122131;28;20043;-81
2021/08/19 06:16:09;;;;;;;7.18;4.38;;;;;;;;;;5122856;28;20093;-82
2021/08/19 06:18:36;;;;;;;8.27;5.53;;;;;;;;;;5117956;28;20576;-82
2021/08/19 06:21:03;;;;;;;9.32;5.97;;;;;;;;;;5121898;27;20088;-83
2021/08/19 06:23:29;;;;;;;8.27;4.65;;;;;;;;;;5138077;27;20051;-82
2021/08/19 06:25:56;;;;;;;7.13;4.78;;;;;;;;;;5137206;27;20043;-80
2021/08/19 06:28:25;;;;;;;6.75;4.18;;;;;;;;;;5138007;28;20047;-81
2021/08/19 06:30:54;;;;;;;8.23;4.82;;;;;;;;;;5133878;28;20104;-81
2021/08/19 06:33:21;;;;;;;7.32;4.32;;;;;;;;;;5116023;28;20096;-81
2021/08/19 06:35:48;;;;;;;8.23;4.80;;;;;;;;;;5117713;28;20052;-82
2021/08/19 06:38:15;;;;;;;7.90;4.07;;;;;;;;;;5118282;28;20043;-81
2021/08/19 06:40:42;;;;;;;9.32;6.35;;;;;;;;;;5136403;28;20054;-79
2021/08/19 06:43:09;;;;;;;8.35;4.30;;;;;;;;;;5151405;27;20306;-81
2021/08/19 06:45:36;;;;;;;7.28;4.40;;;;;;;;;;5130092;27;20040;-81
2021/08/19 06:48:08;;;;;;;6.95;4.18;;;;;;;;;;5127691;27;20539;-80
2021/08/19 06:50:40;;;;;;;7.93;4.57;;;;;;;;;;5129090;27;20074;-82
2021/08/19 06:53:07;;;;;;;7.20;4.47;;;;;;;;;;5128188;27;20051;-81
2021/08/19 06:55:34;;;;;;;7.82;5.15;;;;;;;;;;5126364;27;20044;-82
2021/08/19 06:58:00;;;;;;;7.22;4.45;;;;;;;;;;5141077;27;20051;-82
2021/08/19 07:00:27;;;;;;;6.97;4.38;;;;;;;;;;5140793;27;20484;-81
2021/08/19 07:02:54;;;;;;;7.40;4.20;;;;;;;;;;5129148;27;20043;-81
2021/08/19 07:05:22;;;;;;;7.00;3.83;;;;;;;;;;5119034;27;20074;-81
2021/08/19 07:07:50;;;;;;;7.28;4.40;;;;;;;;;;5120002;28;20070;-82
2021/08/19 07:10:17;;;;;;;7.45;4.35;;;;;;;;;;5125783;27;20459;-82
2021/08/19 07:12:44;;;;;;;8.27;4.40;;;;;;;;;;5133726;27;20051;-82
2021/08/19 07:15:19;;;;;;;9.35;4.50;;;;;;;;;;5130951;27;20096;-82
2021/08/19 07:17:46;;;;;;;8.77;3.97;;;;;;;;;;5136464;27;20680;-81
2021/08/19 07:20:25;;;;;;;8.38;4.65;;;;;;;;;;5130881;27;20043;-82
2021/08/19 07:22:58;;;;;;;6.68;3.92;;;;;;;;;;5127328;27;20051;-82
2021/08/19 07:25:41;;;;;;;6.63;3.78;;;;;;;;;;5121963;28;20056;-82
2021/08/19 07:28:18;;;;;;;8.82;4.32;;;;;;;;;;5116216;28;20561;-82
2021/08/19 07:36:53;;;;;;;6.72;4.85;;;;;;;;;;5117736;27;20119;-83
2021/08/19 07:39:24;;;;;;;;;;;;;;;;;;5109637;28;20055;-81
2021/08/19 07:41:50;;;;;;;;;;;;;;;;;;5118183;28;19973;-82
2021/08/19 07:44:19;;;;;;;6.32;4.18;;;;;;;;;;5118161;28;19964;-82
2021/08/19 07:46:45;;;;;;;8.77;4.75;;;;;;;;;;5118020;28;20047;-81
2021/08/19 07:49:13;;;;;;;7.53;4.28;;;;;;;;;;5118124;28;20052;-82
2021/08/19 07:51:40;;;;;;;6.75;3.63;;;;;;;;;;5118316;28;20044;-81
2021/08/19 07:54:07;;;;;;;7.20;3.80;;;;;;;;;;5120907;27;20048;-81
2021/08/19 07:56:35;;;;;;;5.50;3.78;;;;;;;;;;5124241;27;20044;-81
2021/08/19 07:59:02;;;;;;;7.20;4.13;;;;;;;;;;5125649;27;20048;-81
2021/08/19 08:01:28;;;;;;;6.18;3.42;;;;;;;;;;5126471;27;20115;-82
2021/08/19 08:03:55;;;;;;;6.65;3.30;;;;;;;;;;5125064;27;20043;-82
2021/08/19 08:06:22;;;;;;;7.15;4.00;;;;;;;;;;5126157;27;20411;-82
2021/08/19 08:08:54;;;;;;;7.30;3.70;;;;;;;;;;5131483;27;20043;-82
2021/08/19 08:11:20;;;;;;;6.45;2.95;;;;;;;;;;5140041;27;20051;-81
2021/08/19 08:13:49;;;;;;;4.85;3.40;;;;;;;;;;5122587;27;20040;-82
2021/08/19 08:16:15;;;;;;;5.55;3.05;;;;;;;;;;5117155;28;20450;-81
2021/08/19 08:18:59;;;;;;;5.57;3.67;;;;;;;;;;5117590;28;20047;-85
2021/08/19 08:21:26;;;;;;;6.07;3.53;;;;;;;;;;5117922;28;20059;-86
2021/08/19 08:23:55;;;;;;;6.05;2.83;;;;;;;;;;5117906;28;20120;-86
2021/08/19 08:26:22;;;;;;;5.13;2.80;;;;;;;;;;5130631;27;20346;-83
2021/08/19 08:28:59;;;;;;;5.55;3.65;;;;;;;;;;5125790;27;20035;-86
2021/08/19 08:31:45;;;;;;;5.00;2.83;;;;;;;;;;5117193;28;20058;-84
2021/08/19 08:34:17;;;;;;;6.38;3.30;;;;;;;;;;5116256;28;20043;-84
2021/08/19 08:36:44;;;;;;;5.82;3.10;;;;;;;;;;5103289;28;20052;-85
2021/08/19 08:39:11;;;;;;;5.13;2.88;;;;;;;;;;5116683;28;20055;-85
2021/08/19 08:41:40;;;;;;;4.78;2.72;;;;;;;;;;5117541;28;20138;-85
2021/08/19 08:47:08;;;;;;;5.32;3.00;;;;;;;;;;5086577;22;20072;-83
2021/08/19 08:49:36;;;;;;;4.40;2.38;;;;;;;;;;5085284;28;20091;-85
2021/08/19 08:52:07;;;;;;;5.32;2.60;;;;;;;;;;5085641;28;20044;-86
2021/08/19 08:54:34;;;;;;;7.18;2.78;;;;;;;;;;5079396;28;20097;-84
2021/08/19 08:57:01;;;;;;;4.72;2.83;;;;;;;;;;5076367;28;20053;-82
2021/08/19 08:59:32;;;;;;;5.13;2.60;;;;;;;;;;5072452;28;20045;-83
2021/08/19 09:01:58;;;;;;;4.57;2.25;;;;;;;;;;5075579;28;20045;-83
2021/08/19 09:04:25;;;;;;;4.47;2.55;;;;;;;;;;5076838;28;20045;-81
2021/08/19 09:06:52;;;;;;;4.70;2.45;;;;;;;;;;5086903;28;20115;-81
2021/08/19 09:09:21;;;;;;;4.28;2.60;;;;;;;;;;5097750;28;20045;-86
2021/08/19 09:11:53;;;;;;;13.05;9.52;;;;;;;;;;5078220;28;20048;-85
2021/08/19 09:14:42;;;;;;;5.30;2.88;;;;;;;;;;5047018;28;20060;-85
2021/08/19 09:21:26;;;;;;;4.47;2.70;;;;;;;;;;5070792;28;20142;-84
2021/08/19 09:24:35;;;;;;;4.88;2.70;;;;;;;;;;4993849;28;20053;-83
2021/08/19 09:27:33;;;;;;;5.43;2.00;;;;;;;;;;5011588;28;20054;-83
2021/08/19 09:30:30;;;;;;;4.07;1.95;;;;;;;;;;5011659;28;20058;-83
2021/08/19 09:33:23;;;;;;;3.60;1.70;;;;;;;;;;5011292;28;20045;-83
2021/08/19 09:35:59;;;;;;;3.90;2.13;;;;;;;;;;5020027;28;20053;-84
2021/08/19 09:38:27;;;;;;;2.92;1.75;;;;;;;;;;5074165;28;20048;-84
2021/08/19 09:41:10;;;;;;;3.40;1.50;;;;;;;;;;5079073;28;20044;-84
2021/08/19 09:43:39;;;;;;;4.45;2.30;;;;;;;;;;5081511;28;20060;-83
2021/08/19 09:46:07;;;;;;;5.13;3.08;;;;;;;;;;5086810;28;20056;-83
2021/08/19 09:48:49;;;;;;;5.80;3.53;;;;;;;;;;5101025;28;20040;-84
2021/08/19 09:51:25;;;;;;;5.68;2.80;;;;;;;;;;5088157;28;20484;-83
2021/08/19 09:54:05;;;;;;;3.47;1.50;;;;;;;;;;5095881;28;20105;-84
2021/08/19 09:57:08;;;;;;;3.10;1.50;;;;;;;;;;5098208;28;20059;-86
2021/08/19 10:03:03;;;;;;;3.45;1.63;;;;;;;;;;5065577;28;20105;-83
2021/08/19 10:05:40;;;;;;;7.93;6.55;;;;;;;;;;5143963;22;20114;-83
2021/08/19 10:08:10;;;;;;;4.53;3.22;;;;;;;;;;5129127;28;20424;-87
2021/08/19 10:10:39;;;;;;;6.05;2.92;;;;;;;;;;5125278;28;20467;-84
2021/08/19 10:13:30;;;;;;;4.43;1.70;;;;;;;;;;5128461;28;20036;-83
2021/08/19 10:15:58;;;;;;;7.68;5.15;;;;;;;;;;5094204;22;20574;-81
2021/08/19 10:18:28;;;;;;;5.10;3.30;;;;;;;;;;5098095;28;20476;-81
2021/08/19 10:21:01;;;;;;;4.97;3.13;;;;;;;;;;5100563;28;20376;-81
2021/08/19 10:23:31;;;;;;;5.22;2.53;;;;;;;;;;5098845;28;20055;-81
2021/08/19 10:26:03;;;;;;;5.32;3.10;;;;;;;;;;5097420;28;20085;-81
2021/08/19 10:28:45;;;;;;;6.18;3.05;;;;;;;;;;5098228;28;20052;-81
2021/08/19 10:31:11;;;;;;;5.32;3.00;;;;;;;;;;5098397;28;20078;-82
2021/08/19 10:33:43;;;;;;;4.40;2.50;;;;;;;;;;5096869;28;20075;-85
2021/08/19 10:36:49;;;;;;;4.78;3.50;;;;;;;;;;5103144;28;20040;-86
2021/08/19 10:39:36;;;;;;;8.27;3.60;;;;;;;;;;5097719;28;20134;-84
2021/08/19 10:42:03;;;;;;;4.85;2.50;;;;;;;;;;5094220;28;20052;-84
2021/08/19 10:44:33;;;;;;;6.00;2.60;;;;;;;;;;5094477;28;20052;-83
2021/08/19 10:47:00;;;;;;;5.03;2.40;;;;;;;;;;5101197;28;20101;-81
2021/08/19 10:49:39;;;;;;;4.07;2.05;;;;;;;;;;5095935;28;20048;-80
2021/08/19 10:52:31;;;;;;;4.20;1.90;;;;;;;;;;5096593;28;20043;-82
2021/08/19 10:55:13;;;;;;;3.60;1.83;;;;;;;;;;5102011;28;20044;-81
2021/08/19 10:57:57;;;;;;;3.83;2.22;;;;;;;;;;5099114;28;20105;-84
2021/08/19 11:00:41;;;;;;;6.68;2.55;;;;;;;;;;5097421;28;20036;-81
2021/08/19 11:03:10;;;;;;;4.47;2.20;;;;;;;;;;5099082;28;20052;-81
2021/08/19 11:05:56;;;;;;;4.75;2.67;;;;;;;;;;5098716;28;20107;-81
2021/08/19 11:08:55;;;;;;;5.35;2.10;;;;;;;;;;5090919;28;20048;-81
2021/08/19 11:11:29;;;;;;;4.97;2.80;;;;;;;;;;5016287;28;20046;-81
2021/08/19 11:14:08;;;;;;;4.03;2.55;;;;;;;;;;5076468;28;20056;-81
2021/08/19 11:16:36;;;;;;;4.00;1.97;;;;;;;;;;5096950;28;20040;-80
2021/08/19 11:19:23;;;;;;;3.50;1.70;;;;;;;;;;5098248;28;20656;-82
2021/08/19 11:21:52;;;;;;;4.47;2.72;;;;;;;;;;5098707;28;20040;-80
2021/08/19 11:24:19;;;;;;;4.93;2.65;;;;;;;;;;5098400;28;20051;-81
2021/08/19 11:27:04;;;;;;;3.67;1.90;;;;;;;;;;5097340;28;20109;-81
2021/08/19 11:29:35;;;;;;;4.95;1.75;;;;;;;;;;5099259;28;20081;-81
2021/08/19 11:32:07;;;;;;;3.50;2.03;;;;;;;;;;5101292;28;20056;-82
2021/08/19 11:34:34;;;;;;;3.08;1.70;;;;;;;;;;5117445;28;20032;-80
2021/08/19 11:37:01;;;;;;;3.63;1.60;;;;;;;;;;5105751;28;20477;-80
2021/08/19 11:39:30;;;;;;;3.13;1.75;;;;;;;;;;5097298;28;20079;-79
2021/08/19 11:42:00;;;;;;;3.15;1.70;;;;;;;;;;5097442;28;20098;-79
2021/08/19 11:44:29;;;;;;;3.90;2.40;;;;;;;;;;5098460;28;20086;-80
2021/08/19 11:47:03;;;;;;;6.65;4.03;;;;;;;;;;5098363;28;20047;-80
2021/08/19 11:49:32;;;;;;;3.75;2.00;;;;;;;;;;5099054;28;20085;-81
2021/08/19 11:52:04;;;;;;;3.63;2.00;;;;;;;;;;5099467;28;20048;-79
2021/08/19 11:54:46;;;;;;;3.42;1.75;;;;;;;;;;5098566;28;20044;-81
2021/08/19 11:57:32;;;;;;;4.00;2.20;;;;;;;;;;5098702;28;20047;-80
2021/08/19 12:00:00;;;;;;;4.30;2.00;;;;;;;;;;5085944;28;20117;-82
2021/08/19 12:02:27;;;;;;;4.75;2.17;;;;;;;;;;5084831;28;20054;-80
2021/08/19 12:05:05;;;;;;;3.70;1.88;;;;;;;;;;5097506;28;20105;-80
2021/08/19 12:07:34;;;;;;;4.97;2.03;;;;;;;;;;5099074;28;20048;-80
2021/08/19 12:10:02;;;;;;;3.30;1.70;;;;;;;;;;5099895;28;20044;-80
2021/08/19 12:12:31;;;;;;;3.92;2.10;;;;;;;;;;5100802;28;20458;-80
2021/08/19 12:14:59;;;;;;;3.45;1.70;;;;;;;;;;5098672;28;20054;-79
2021/08/19 12:17:26;;;;;;;3.72;1.90;;;;;;;;;;5099193;28;20074;-79
2021/08/19 12:20:16;;;;;;;2.83;2.05;;;;;;;;;;5099266;28;20040;-79
2021/08/19 12:22:43;;;;;;;3.08;1.75;;;;;;;;;;5098832;28;20058;-79
2021/08/19 12:25:19;;;;;;;3.13;1.73;;;;;;;;;;5099924;28;20048;-80
2021/08/19 12:27:46;;;;;;;4.88;1.73;;;;;;;;;;5101599;28;20044;-79
2021/08/19 12:30:14;;;;;;;3.70;1.80;;;;;;;;;;5099680;28;20070;-81
2021/08/19 12:32:45;;;;;;;4.10;2.05;;;;;;;;;;5099736;28;20097;-81
2021/08/19 12:35:14;;;;;;;5.95;1.90;;;;;;;;;;5098933;28;20420;-81
2021/08/19 12:37:52;;;;;;;3.38;1.70;;;;;;;;;;5098860;28;20424;-81
2021/08/19 12:40:19;;;;;;;3.47;1.70;;;;;;;;;;5099346;28;20044;-81
2021/08/19 12:42:47;;;;;;;2.75;1.60;;;;;;;;;;5100178;28;20452;-81
2021/08/19 12:45:17;;;;;;;3.17;1.77;;;;;;;;;;5099232;28;20090;-81
2021/08/19 12:47:45;;;;;;;3.08;1.67;;;;;;;;;;5100949;28;20094;-81
2021/08/19 12:50:18;;;;;;;4.18;2.20;;;;;;;;;;5098837;28;20048;-81
2021/08/19 12:52:46;;;;;;;4.22;2.13;;;;;;;;;;5098955;28;20040;-81
2021/08/19 12:55:15;;;;;;;3.40;1.70;;;;;;;;;;5097870;28;20048;-80
2021/08/19 12:57:50;;;;;;;4.03;2.08;;;;;;;;;;5098569;28;20059;-80
2021/08/19 13:00:21;;;;;;;4.22;1.75;;;;;;;;;;5099840;28;20131;-80
2021/08/19 13:02:48;;;;;;;4.18;1.80;;;;;;;;;;5098111;28;20486;-82
2021/08/19 13:05:16;;;;;;;3.17;1.60;;;;;;;;;;5096256;28;20056;-81
2021/08/19 13:07:43;;;;;;;3.20;1.80;;;;;;;;;;5086614;28;20496;-80
2021/08/19 13:10:12;;;;;;;3.92;1.63;;;;;;;;;;5096961;28;20048;-81
2021/08/19 13:12:38;;;;;;;3.58;1.77;;;;;;;;;;5090820;28;20063;-81
2021/08/19 13:15:07;;;;;;;3.47;1.65;;;;;;;;;;5095058;28;20048;-85
2021/08/19 13:17:36;;;;;;;4.45;2.30;;;;;;;;;;5095753;28;20040;-81
2021/08/19 13:20:05;;;;;;;4.10;2.03;;;;;;;;;;5089528;28;20085;-87
2021/08/19 13:22:32;;;;;;;3.88;2.20;;;;;;;;;;5096925;28;20044;-85
2021/08/19 13:24:59;;;;;;;8.05;5.47;;;;;;;;;;5102555;28;20052;-88
2021/08/19 13:27:26;;;;;;;5.22;2.97;;;;;;;;;;5106090;28;20645;-81
2021/08/19 13:29:55;;;;;;;4.60;2.30;;;;;;;;;;5096103;28;20044;-83
2021/08/19 13:32:22;;;;;;;5.10;2.60;;;;;;;;;;5095590;28;20382;-83
2021/08/19 13:34:51;;;;;;;9.88;2.90;;;;;;;;;;5096381;28;20044;-83
2021/08/19 13:37:18;;;;;;;4.40;2.05;;;;;;;;;;5095989;28;20495;-80
2021/08/19 13:39:45;;;;;;;4.13;2.05;;;;;;;;;;5094095;28;20507;-81
2021/08/19 13:42:13;;;;;;;5.63;2.38;;;;;;;;;;5094211;28;20050;-80
2021/08/19 13:44:41;;;;;;;4.93;2.28;;;;;;;;;;5093725;28;20052;-79
2021/08/19 13:47:08;;;;;;;4.22;2.10;;;;;;;;;;5093769;28;20044;-82
2021/08/19 13:49:37;;;;;;;3.70;1.92;;;;;;;;;;5095458;28;20048;-82
2021/08/19 13:52:06;;;;;;;4.40;2.58;;;;;;;;;;5097092;28;20048;-82
2021/08/19 13:54:33;;;;;;;5.20;3.60;;;;;;;;;;5096266;28;20043;-82
2021/08/19 13:57:06;;;;;;;4.28;2.58;;;;;;;;;;5095234;28;20048;-83
2021/08/19 13:59:35;;;;;;;3.55;2.30;;;;;;;;;;5096497;28;20040;-82
2021/08/19 14:02:02;;;;;;;3.38;2.08;;;;;;;;;;5091014;28;20040;-84
2021/08/19 14:04:29;;;;;;;3.92;2.00;;;;;;;;;;5096150;28;20108;-82
2021/08/19 14:06:56;;;;;;;3.60;2.13;;;;;;;;;;5096235;28;20455;-83
2021/08/19 14:09:27;;;;;;;4.40;2.50;;;;;;;;;;5096201;28;20044;-82
2021/08/19 14:11:54;;;;;;;5.82;3.63;;;;;;;;;;5095591;28;20488;-82
2021/08/19 14:14:21;;;;;;;4.57;2.13;;;;;;;;;;5091160;28;20052;-82
2021/08/19 14:16:48;;;;;;;4.18;2.03;;;;;;;;;;5096267;28;20106;-81
2021/08/19 14:19:18;;;;;;;3.78;1.77;;;;;;;;;;5098529;28;20040;-82
2021/08/19 14:21:45;;;;;;;3.90;2.20;;;;;;;;;;5098319;28;20051;-83
2021/08/19 14:24:12;;;;;;;8.10;6.20;;;;;;;;;;5098484;28;20052;-83
2021/08/19 14:26:40;;;;;;;4.72;2.25;;;;;;;;;;5099406;28;20044;-80
2021/08/19 14:29:07;;;;;;;3.90;2.40;;;;;;;;;;5098684;28;20062;-81
2021/08/19 14:31:37;;;;;;;4.32;2.50;;;;;;;;;;5098661;28;20074;-83
2021/08/19 14:34:07;;;;;;;14.40;4.13;;;;;;;;;;5094125;28;20044;-82
2021/08/19 14:36:34;;;;;;;15.02;4.00;;;;;;;;;;5093099;28;20385;-82
2021/08/19 14:39:00;;;;;;;4.75;2.25;;;;;;;;;;5095246;28;20040;-82
2021/08/19 14:41:27;;;;;;;5.45;3.33;;;;;;;;;;5095570;28;20044;-82
2021/08/19 14:43:58;;;;;;;7.40;5.28;;;;;;;;;;5096032;28;20070;-81
2021/08/19 14:46:25;;;;;;;26.60;7.68;;;;;;;;;;5093790;28;20425;-82
2021/08/19 14:48:51;;;;;;;5.72;2.72;;;;;;;;;;5094897;28;20055;-83
2021/08/19 14:51:18;;;;;;;6.82;2.75;;;;;;;;;;5095006;28;20386;-83
2021/08/19 14:53:51;;;;;;;5.55;2.53;;;;;;;;;;5094918;28;20048;-81
2021/08/19 14:56:17;;;;;;;6.85;2.92;;;;;;;;;;5095079;28;20044;-83
2021/08/19 14:58:44;;;;;;;3.97;2.40;;;;;;;;;;5094451;28;20048;-82
2021/08/19 15:01:12;;;;;;;9.98;3.90;;;;;;;;;;5094433;28;20097;-83
2021/08/19 15:03:39;;;;;;;3.33;2.03;;;;;;;;;;5089725;28;20098;-81
2021/08/19 15:06:06;;;;;;;4.40;2.28;;;;;;;;;;5097105;28;20113;-84
2021/08/19 15:08:33;;;;;;;4.40;2.25;;;;;;;;;;5100293;28;20094;-82
2021/08/19 15:10:59;;;;;;;4.97;2.30;;;;;;;;;;5100633;28;20067;-82
2021/08/19 15:13:26;;;;;;;5.68;2.10;;;;;;;;;;5100963;28;20105;-82
2021/08/19 15:15:53;;;;;;;3.47;2.08;;;;;;;;;;5099020;28;20113;-82
2021/08/19 15:18:28;;;;;;;4.53;2.35;;;;;;;;;;5099605;28;20052;-83
2021/08/19 15:20:55;;;;;;;5.20;2.55;;;;;;;;;;5100303;28;20075;-81
2021/08/19 15:23:22;;;;;;;4.30;2.28;;;;;;;;;;5100766;28;20483;-80
2021/08/19 15:25:49;;;;;;;4.85;2.72;;;;;;;;;;5099456;28;20484;-82
2021/08/19 15:28:18;;;;;;;4.82;2.80;;;;;;;;;;5100576;28;20048;-83
2021/08/19 15:30:47;;;;;;;5.57;2.43;;;;;;;;;;5100399;28;20485;-82
2021/08/19 15:33:17;;;;;;;4.25;2.95;;;;;;;;;;5101416;28;20123;-81
2021/08/19 15:35:46;;;;;;;5.75;3.30;;;;;;;;;;5100197;28;20044;-82